Terminal Aerodrome Forecast
Issued by NWS

Home | Current Version | Previous Version | Text Only | Print | Product List | Glossary On
Versions: 1 2 3 4 5 6 7 8 9 10 11 12 13 14 15 16 17 18 19 20 21 22 23 24 25 26 27 28 29 30 31 32 33 34 35 36 37 38 39 40 41 42 43 44 45 46 47 48
732
FTUS41 KALY 171722
TAFPSF
TAF
KPSF 171722Z 1718/1818 27004KT P6SM FEW200
     FM172100 26004KT P6SM SCT050 SCT080
     FM180300 VRB03KT P6SM BKN050 PROB30 1806/1812 4SM -SHRA OVC020
     FM181200 15006KT 6SM -SHRA OVC012
      TEMPO 1812/1816 1SM -SHRA OVC007=

USA.gov is the U.S. government's official web portal to all federal, state and local government web resources and services.